Flight Track Log - Related Links

Times and Time Zones

All times are in EDT time to prevent confusion due to time zone crossing. See the RPA3228 flight status page for this flight to view local times or setup timezone preferences in your user account.

Time Position Orientation Groundspeed Altitude Reporting Facility
EDT Latitude Longitude Course Direction KTS MPH feet Rate Location/Type
Thu 08:29:59 AM 36.1500 -86.6667 39° Northeast 157 181 1,300  Level Nashville TRACON
Thu 08:31:23 AM 36.2000 -86.6167 39° Northeast 239 275 3,800 1,750 Climbing Nashville TRACON
Thu 08:32:23 AM 36.1667 -86.5333 116° Southeast 292 336 5,500 2,272 Climbing Nashville TRACON
Thu 08:33:06 AM 36.1333 -86.4667 122° Southeast 291 335 7,700 2,865 Climbing Nashville TRACON
Thu 08:34:14 AM 36.1486 -86.3653 79° East 290 334 10,800 2,250 Climbing Memphis Center
Thu 08:35:14 AM 36.1661 -86.2642 78° East 308 354 12,500 2,150 Climbing Memphis Center
Thu 08:36:14 AM 36.1872 -86.1475 77° East 332 382 15,100 2,400 Climbing Memphis Center
Thu 08:37:14 AM 36.2186 -86.0325 71° East 352 405 17,300 2,150 Climbing Memphis Center
Thu 08:38:14 AM 36.2667 -85.9192 62° Northeast 358 412 19,400 2,274 Climbing Memphis Center
Thu 08:38:49 AM 36.2997 -85.8450 61° Northeast 373 429 20,900 2,041 Climbing Indianapolis Center
Thu 08:39:51 AM 36.3564 -85.7242 60° Northeast 385 443 22,700 1,645 Climbing Indianapolis Center
Thu 08:40:53 AM 36.4142 -85.6044 59° Northeast 399 459 24,300 1,113 Climbing Indianapolis Center
Thu 08:41:55 AM 36.4728 -85.4794 60° Northeast 415 478 25,000 341 Climbing Indianapolis Center
Thu 08:42:56 AM 36.5325 -85.3547 59° Northeast 418 481 25,000 49 Level Indianapolis Center
Thu 08:43:58 AM 36.5914 -85.2292 60° Northeast 419 482 25,100 629 Climbing Indianapolis Center
Thu 08:45:00 AM 36.6403 -85.0978 65° Northeast 417 480 26,300 1,306 Climbing Indianapolis Center
Thu 08:46:02 AM 36.6831 -84.9542 70° East 433 498 27,800 1,355 Climbing Indianapolis Center
Thu 08:47:04 AM 36.7356 -84.7811 69° East 442 509 29,100 1,403 Climbing Indianapolis Center
Thu 08:48:06 AM 36.7806 -84.6350 69° East 448 516 30,700 1,258 Climbing Indianapolis Center
Thu 08:49:08 AM 36.8225 -84.4961 69° East 449 517 31,700 976 Climbing Indianapolis Center
Thu 08:50:09 AM 36.8667 -84.3469 70° East 454 522 32,700 878 Climbing Indianapolis Center
Thu 08:51:11 AM 36.9128 -84.1958 69° East 461 531 33,500 871 Climbing Indianapolis Center
Thu 08:52:13 AM 36.9647 -84.0167 70° East 468 539 34,500 726 Climbing Indianapolis Center
Thu 08:53:15 AM 37.0114 -83.8619 69° East 471 542 35,000 242 Climbing Indianapolis Center
Thu 08:54:17 AM 37.0592 -83.7058 69° East 476 548 35,000  Level Indianapolis Center
Thu 08:55:19 AM 37.1047 -83.5489 70° East 476 548 35,000  Level Indianapolis Center
Thu 08:56:21 AM 37.1511 -83.3911 70° East 479 551 35,000  Level Indianapolis Center
Thu 08:57:23 AM 37.1964 -83.2347 70° East 474 545 35,000  Level Indianapolis Center
Thu 08:58:25 AM 37.2419 -83.0761 70° East 477 549 35,000  Level Indianapolis Center
Thu 08:59:27 AM 37.2950 -82.8892 70° East 481 554 35,000  Level Indianapolis Center
Thu 09:00:29 AM 37.3411 -82.7281 70° East 485 558 35,000  Level Indianapolis Center
Thu 09:01:30 AM 37.3858 -82.5700 70° East 479 551 35,000  Level Indianapolis Center
Thu 09:02:32 AM 37.4306 -82.4119 70° East 478 550 35,000  Level Indianapolis Center
Thu 09:03:34 AM 37.4736 -82.2525 71° East 479 551 35,000  Level Indianapolis Center
Thu 09:04:36 AM 37.5186 -82.0947 70° East 478 550 35,000  Level Indianapolis Center
Thu 09:05:38 AM 37.5689 -81.9094 71° East 478 550 35,000  Level Indianapolis Center
Thu 09:06:41 AM 37.6131 -81.7517 70° East 476 548 35,000  Level Indianapolis Center
Thu 09:07:43 AM 37.6553 -81.5919 71° East 478 550 35,000  Level Indianapolis Center
Thu 09:08:45 AM 37.6978 -81.4328 71° East 477 549 35,000  Level Indianapolis Center
Thu 09:09:47 AM 37.7397 -81.2806 71° East 472 543 35,000  Level Indianapolis Center
Thu 09:10:49 AM 37.7914 -81.0969 70° East 474 545 35,000  Level Indianapolis Center
Thu 09:11:51 AM 37.8378 -80.9639 66° East 474 545 35,000  Level Indianapolis Center
Thu 09:12:53 AM 37.8908 -80.8133 66° East 473 544 35,000  Level Indianapolis Center
Thu 09:13:55 AM 37.9542 -80.6311 66° East 474 545 35,000  Level Indianapolis Center
Thu 09:14:36 AM 37.9900 -80.5350 65° Northeast 469 540 35,000  Level Washington Center
Thu 09:15:33 AM 38.0442 -80.3828 66° East 469 540 35,000  Level Washington Center
Thu 09:16:35 AM 38.0981 -80.2333 65° Northeast 469 540 35,000  Level Washington Center
Thu 09:17:35 AM 38.1494 -80.0911 65° Northeast 474 545 35,000 -248 Level Washington Center
Thu 09:18:36 AM 38.2050 -79.9411 65° Northeast 474 545 34,500 -1,462 Descending Washington Center
Thu 09:19:34 AM 38.2564 -79.7883 67° East 474 545 32,100 -2,471 Descending Washington Center
Thu 09:20:35 AM 38.3117 -79.6300 66° East 474 545 29,600 -2,529 Descending Washington Center
Thu 09:21:35 AM 38.3694 -79.4661 66° East 474 545 27,000 -1,289 Descending Washington Center
Thu 09:22:36 AM 38.4200 -79.3178 66° East 468 539 27,000  Level Washington Center
Thu 09:23:34 AM 38.4497 -79.1628 76° East 456 525 27,000  Level Washington Center
Thu 09:24:35 AM 38.4772 -79.0050 77° East 456 525 27,000 -541 Level Washington Center
Thu 09:25:36 AM 38.5025 -78.8389 79° East 456 525 25,900 -1,686 Descending Washington Center
Thu 09:26:36 AM 38.5253 -78.6886 79° East 456 525 23,600 -1,932 Descending Washington Center
Thu 09:27:34 AM 38.5478 -78.5411 79° East 438 504 22,100 -1,311 Descending Washington Center
Thu 09:28:35 AM 38.5722 -78.3958 78° East 424 488 21,000 -1,438 Descending Washington Center
Thu 09:29:35 AM 38.5961 -78.2561 78° East 414 476 19,200 -1,736 Descending Washington Center
Thu 09:30:36 AM 38.6367 -78.1244 68° East 396 456 17,500 -1,750 Descending Washington Center
Thu 09:31:35 AM 38.6789 -77.9983 67° East 391 450 15,700 -1,750 Descending Washington Center
Thu 09:32:36 AM 38.7142 -77.8878 68° East 363 418 14,000 -1,613 Descending Washington Center
Thu 09:33:34 AM 38.7558 -77.7878 62° Northeast 340 391 12,500 -1,412 Descending Washington Center
Thu 09:34:35 AM 38.8136 -77.7069 47° Northeast 310 357 11,200 -1,351 Descending Washington Center
Thu 09:35:25 AM 38.8500 -77.6167 63° Northeast 313 360 10,000 -1,314 Descending Potomac TRACON
Thu 09:36:20 AM 38.8833 -77.5333 63° Northeast 302 348 8,900 -1,148 Descending Potomac TRACON
Thu 09:37:20 AM 38.9000 -77.4333 78° East 297 342 7,800 -1,250 Descending Potomac TRACON
Thu 09:38:20 AM 38.8667 -77.3333 113° Southeast 290 334 6,400 -900 Descending Potomac TRACON
Thu 09:39:20 AM 38.8167 -77.2500 128° Southeast 290 334 6,000 -263 Descending Potomac TRACON
Thu 09:40:14 AM 38.7833 -77.1667 117° Southeast 290 334 5,900 -684 Descending Potomac TRACON
Thu 09:41:14 AM 38.7333 -77.1167 142° Southeast 273 314 4,700 -1,000 Descending Potomac TRACON
Thu 09:42:08 AM 38.6667 -77.1000 169° South 249 287 4,000 -737 Descending Potomac TRACON
Thu 09:43:08 AM 38.6500 -77.0500 113° Southeast 210 242 3,300 -1,000 Descending Potomac TRACON
Thu 09:44:08 AM 38.6833 -77.0167 38° Northeast 183 211 2,000 -650 Descending Potomac TRACON
Thu 09:45:08 AM 38.7333 -77.0167 360° North 167 192 2,000 -298 Level Potomac TRACON
Thu 09:46:09 AM 38.7667 -77.0333 339° North 160 184 1,400 -694 Descending Potomac TRACON
Thu 09:47:09 AM 38.8167 -77.0333 360° North 135 155 600 -800 Descending Potomac TRACON

Login

Don't have an account? Register now (free) for customized features, flight alerts, and more!